Hewittville, New York
Current Conditions -  °F | °C
As of 2:53 PM on Sunday 21 Dec 2014 (Local Time) from KMSS Reporting Station
Overcast Overcast  
Wind Chill: 13°   Ceiling: 2600
Heat Index: 22°   Visibility: 8mi
Dew Point: 16°   Wind: 8mph
Humidity: 78%   Direction: 60°ENE
Pressure: 30.35"   Gusts: NA
Location:  44.7612°N, 74.9585°W
Report Text: KMSS 211953Z AUTO 06007KT 8SM BKN026 OVC085 M06/M09 A3035 RMK AO2 SLP286 T10561089
Loading
Personal Weather Stations






























Interactive Weather Map New forecast layout! Learn more

10-Day Weather Forecast

Advertisements
Track Severe Weather on mobile